Time;durP1;ratioP1;P1;durP2;ratioP2;P2;SDS_P1;SDS_P2;PMS_P1;PMS_P2;Temp;Humidity;BMP_temperature;BMP_pressure;BME280_temperature;BME280_humidity;BME280_pressure;Samples;Min_cycle;Max_cycle;Signal;HPM_P1;HPM_P2
2022/12/24 00:02:49;;;;;;;0.00;0.00;;;;;;;12.33;80.87;99585.50;10439262;28;20100;-60
2022/12/24 00:07:50;;;;;;;0.00;0.00;;;;;;;12.35;81.25;99576.16;10453753;28;20053;-64
2022/12/24 00:12:52;;;;;;;0.00;0.00;;;;;;;12.40;81.03;99589.00;10450655;28;20045;-61
2022/12/24 00:17:53;;;;;;;0.00;0.00;;;;;;;12.40;80.52;99584.47;10446202;28;20041;-61
2022/12/24 00:22:54;;;;;;;0.00;0.00;;;;;;;12.40;80.48;99579.06;10448676;28;20046;-59
2022/12/24 00:27:56;;;;;;;0.00;0.00;;;;;;;12.42;80.88;99605.78;10452525;28;20110;-60
2022/12/24 00:32:57;;;;;;;0.00;0.00;;;;;;;12.42;80.90;99590.47;10439255;28;20064;-59
2022/12/24 00:37:59;;;;;;;0.00;0.00;;;;;;;12.41;81.06;99610.38;10457533;28;20053;-63
2022/12/24 00:43:00;;;;;;;0.00;0.00;;;;;;;12.48;81.00;99603.13;10453056;28;20072;-64
2022/12/24 00:48:01;;;;;;;0.00;0.00;;;;;;;12.47;80.92;99624.88;10452711;28;20050;-62
2022/12/24 00:53:03;;;;;;;0.00;0.00;;;;;;;12.55;81.32;99615.75;10449219;28;20060;-63
2022/12/24 00:58:04;;;;;;;0.00;0.00;;;;;;;12.55;80.71;99634.63;10447499;28;20048;-61
2022/12/24 01:03:05;;;;;;;0.00;0.00;;;;;;;12.55;80.84;99642.72;10452231;28;20072;-61
2022/12/24 01:08:07;;;;;;;0.00;0.00;;;;;;;12.54;80.91;99635.66;10453664;28;20052;-61
2022/12/24 01:13:08;;;;;;;0.00;0.00;;;;;;;12.60;80.66;99648.31;10457342;28;20045;-60
2022/12/24 01:18:10;;;;;;;0.00;0.00;;;;;;;12.55;80.85;99657.03;10439764;28;20227;-61
2022/12/24 01:23:11;;;;;;;0.00;0.00;;;;;;;12.57;80.78;99670.31;10460824;28;20049;-59
2022/12/24 01:28:13;;;;;;;0.00;0.00;;;;;;;12.57;81.15;99691.88;10453448;28;20049;-63
2022/12/24 01:33:14;;;;;;;0.00;0.00;;;;;;;12.62;81.09;99700.19;10462572;28;20096;-61
2022/12/24 01:38:15;;;;;;;0.00;0.00;;;;;;;12.65;81.06;99702.47;10467478;28;20526;-60
2022/12/24 01:43:22;;;;;;;0.28;0.28;;;;;;;12.61;81.28;99712.81;10460771;28;20055;-60
2022/12/24 01:48:30;;;;;;;0.00;0.00;;;;;;;12.63;81.14;99718.00;10466135;28;20069;-61
2022/12/24 01:53:33;;;;;;;0.00;0.00;;;;;;;12.59;81.34;99724.84;10447940;28;20045;-60
2022/12/24 01:58:36;;;;;;;0.00;0.00;;;;;;;12.64;81.72;99739.38;10470413;28;20045;-60
2022/12/24 02:03:38;;;;;;;0.00;0.00;;;;;;;12.67;81.40;99751.63;10446202;28;20073;-69
2022/12/24 02:08:40;;;;;;;0.00;0.00;;;;;;;12.65;81.71;99753.69;10436734;28;20130;-66
2022/12/24 02:13:46;;;;;;;0.00;0.00;;;;;;;12.68;81.81;99754.13;10444866;28;20045;-68
2022/12/24 02:19:12;;;;;;;0.00;0.00;;;;;;;12.67;81.97;99762.41;10472169;28;20064;-65
2022/12/24 02:24:50;;;;;;;0.00;0.00;;;;;;;12.74;81.76;99770.50;10469866;28;20049;-63
2022/12/24 02:29:54;;;;;;;0.00;0.00;;;;;;;12.72;81.50;99769.88;10469458;28;20053;-62
2022/12/24 02:35:13;;;;;;;12.45;0.70;;;;;;;12.68;81.87;99764.09;10471402;28;20047;-64
2022/12/24 02:40:24;;;;;;;8.23;0.35;;;;;;;12.59;81.55;99762.59;10465619;28;20045;-63
2022/12/24 02:45:29;;;;;;;9.95;0.65;;;;;;;12.57;81.46;99786.25;10470178;28;20041;-65
2022/12/24 02:50:31;;;;;;;4.80;0.63;;;;;;;12.57;81.57;99781.66;10470709;28;20068;-66
2022/12/24 02:55:43;;;;;;;11.35;2.10;;;;;;;12.55;81.01;99788.31;10465814;28;20045;-63
2022/12/24 03:01:29;;;;;;;9.27;2.25;;;;;;;12.52;81.18;99805.72;10474165;28;20075;-64
2022/12/24 03:06:46;;;;;;;11.98;2.40;;;;;;;12.50;81.42;99802.41;10468402;28;20053;-64
2022/12/24 03:11:59;;;;;;;12.48;1.55;;;;;;;12.50;81.04;99816.72;10465321;28;20053;-63
2022/12/24 03:17:02;;;;;;;12.93;1.10;;;;;;;12.50;81.22;99822.09;10457702;28;20052;-66
2022/12/24 03:22:08;;;;;;;13.85;3.63;;;;;;;12.47;81.38;99811.72;10442444;28;20044;-65
2022/12/24 03:27:12;;;;;;;10.98;1.58;;;;;;;12.42;81.22;99822.28;10445805;28;20045;-67
2022/12/24 03:32:13;;;;;;;10.77;1.15;;;;;;;12.44;81.07;99830.16;10450126;28;20060;-67
2022/12/24 03:37:14;;;;;;;12.93;1.23;;;;;;;12.42;80.99;99833.06;10446448;28;20046;-65
2022/12/24 03:42:16;;;;;;;11.48;1.23;;;;;;;12.43;81.09;99837.41;10440231;28;20076;-67
2022/12/24 03:47:17;;;;;;;13.15;1.00;;;;;;;12.38;81.42;99842.59;10444857;28;20057;-68
2022/12/24 03:52:18;;;;;;;14.27;1.77;;;;;;;12.44;81.24;99836.38;10440231;28;20555;-67
2022/12/24 03:57:20;;;;;;;11.02;1.20;;;;;;;12.45;81.24;99856.91;10407768;28;20100;-68
2022/12/24 04:02:21;;;;;;;13.25;1.50;;;;;;;12.43;81.38;99866.25;10395491;28;20053;-68
2022/12/24 04:07:22;;;;;;;14.35;1.08;;;;;;;12.44;80.98;99857.97;10379779;28;20483;-68
2022/12/24 04:12:24;;;;;;;12.98;1.15;;;;;;;12.44;81.33;99875.97;10389583;28;20042;-69
2022/12/24 04:17:25;;;;;;;11.70;1.48;;;;;;;12.39;81.41;99865.78;10368110;28;20057;-66
2022/12/24 04:22:27;;;;;;;10.43;1.25;;;;;;;12.40;80.98;99880.97;10375188;28;20396;-69
2022/12/24 04:27:30;;;;;;;13.32;1.38;;;;;;;12.40;81.35;99893.56;10387961;28;20051;-69
2022/12/24 04:32:31;;;;;;;14.65;1.40;;;;;;;12.37;80.74;99897.50;10394394;28;20104;-69
2022/12/24 04:37:33;;;;;;;14.77;1.00;;;;;;;12.44;80.70;99898.38;10383669;28;20128;-68
2022/12/24 04:42:34;;;;;;;13.57;0.70;;;;;;;12.41;80.61;99901.47;10392325;28;20112;-68
2022/12/24 04:47:35;;;;;;;13.27;1.60;;;;;;;12.41;81.15;99897.94;10396371;28;20053;-66
2022/12/24 04:52:37;;;;;;;14.40;1.30;;;;;;;12.44;80.80;99897.53;10363025;28;20057;-68
2022/12/24 04:57:38;;;;;;;8.68;0.60;;;;;;;12.44;80.95;99903.78;10431187;28;20045;-68
2022/12/24 05:02:39;;;;;;;7.03;0.70;;;;;;;12.45;81.04;99907.31;10444427;28;20049;-66
2022/12/24 05:07:41;;;;;;;12.57;1.05;;;;;;;12.44;80.79;99909.16;10447453;28;20060;-66
2022/12/24 05:12:42;;;;;;;28.95;10.32;;;;;;;12.37;81.14;99902.91;10445178;28;20040;-66
2022/12/24 05:17:44;;;;;;;11.85;1.20;;;;;;;12.10;81.26;99908.16;10473643;28;20049;-65
2022/12/24 05:28:05;;;;;;;14.95;0.90;;;;;;;11.90;80.99;99917.91;10467101;28;20053;-65
2022/12/24 05:33:06;;;;;;;11.80;1.58;;;;;;;11.86;80.94;99909.38;10468835;28;20076;-65
2022/12/24 05:38:07;;;;;;;17.02;2.95;;;;;;;11.79;80.71;99919.28;10471730;28;20036;-67
2022/12/24 05:43:09;;;;;;;12.05;1.58;;;;;;;11.76;81.11;99908.88;10457974;28;20041;-65
2022/12/24 05:48:10;;;;;;;10.40;1.23;;;;;;;11.76;80.85;99921.50;10476862;28;20507;-65
2022/12/24 05:53:12;;;;;;;9.20;1.00;;;;;;;11.80;81.05;99914.72;10481210;28;20053;-68
2022/12/24 05:58:13;;;;;;;9.07;0.80;;;;;;;11.83;80.73;99920.53;10480827;28;20044;-65
2022/12/24 06:03:14;;;;;;;6.72;0.80;;;;;;;11.86;81.26;99919.31;10471376;28;20052;-64
2022/12/24 06:08:16;;;;;;;9.80;0.75;;;;;;;11.84;81.11;99938.34;10471188;28;20079;-65
2022/12/24 06:13:17;;;;;;;7.85;0.60;;;;;;;11.97;81.01;99948.44;10474778;28;20045;-65
2022/12/24 06:18:18;;;;;;;10.25;1.40;;;;;;;12.04;80.75;99953.88;10467421;28;20056;-66
2022/12/24 06:23:20;;;;;;;9.02;1.00;;;;;;;12.03;80.73;99958.44;10475664;28;20154;-66
2022/12/24 06:28:21;;;;;;;8.02;2.08;;;;;;;12.04;80.78;99957.41;10460525;28;20065;-65
2022/12/24 06:33:23;;;;;;;13.20;0.90;;;;;;;12.10;80.70;99970.09;10474883;28;20049;-65
2022/12/24 06:38:24;;;;;;;19.70;1.55;;;;;;;12.07;80.84;99973.19;10468571;28;20061;-68
2022/12/24 06:43:26;;;;;;;16.27;2.45;;;;;;;12.01;80.80;99975.84;10470904;28;20033;-69
2022/12/24 06:48:27;;;;;;;14.82;1.15;;;;;;;11.89;80.60;99991.69;10478929;28;20033;-65
2022/12/24 06:53:30;;;;;;;9.57;1.92;;;;;;;11.68;80.71;99996.00;10474196;28;20037;-64
2022/12/24 06:58:33;;;;;;;13.68;1.38;;;;;;;11.64;80.64;99994.72;10484005;28;20135;-64
2022/12/24 07:08:50;;;;;;;7.95;0.77;;;;;;;11.53;81.16;99997.91;10733524;22;20082;-62
2022/12/24 07:13:52;;;;;;;20.98;6.90;;;;;;;11.56;81.40;100004.78;10389090;28;20430;-62
2022/12/24 07:18:53;;;;;;;12.73;1.17;;;;;;;11.62;80.94;100015.63;10391531;28;20054;-64
2022/12/24 07:23:55;;;;;;;15.90;0.90;;;;;;;11.70;81.00;100015.50;10396817;28;20052;-64
2022/12/24 07:28:56;;;;;;;14.00;0.98;;;;;;;11.69;81.20;100016.53;10393856;28;20041;-63
2022/12/24 07:33:58;;;;;;;18.85;1.40;;;;;;;11.64;81.06;100034.28;10390265;28;20045;-64
2022/12/24 07:38:59;;;;;;;16.17;2.65;;;;;;;11.65;81.53;100047.56;10392439;28;20026;-64
2022/12/24 07:44:00;;;;;;;9.23;1.00;;;;;;;11.74;81.27;100048.25;10405728;28;20052;-64
2022/12/24 07:49:02;;;;;;;12.88;1.45;;;;;;;11.77;81.49;100060.50;10401450;28;20029;-64
2022/12/24 07:54:03;;;;;;;9.82;1.60;;;;;;;11.81;81.69;100057.25;10356394;28;20038;-60
2022/12/24 07:59:05;;;;;;;18.35;2.17;;;;;;;11.80;81.56;100065.50;10355711;28;20039;-63
2022/12/24 08:04:06;;;;;;;16.88;2.45;;;;;;;11.79;81.84;100071.91;10357306;28;20042;-64
2022/12/24 08:09:08;;;;;;;18.95;1.95;;;;;;;11.75;82.07;100097.56;10355079;28;20043;-65
2022/12/24 08:14:09;;;;;;;18.02;1.98;;;;;;;11.75;81.96;100101.09;10349770;28;20058;-65
2022/12/24 08:19:10;;;;;;;11.88;1.30;;;;;;;11.82;81.78;100091.22;10357162;28;20034;-65
2022/12/24 08:24:12;;;;;;;16.33;1.63;;;;;;;11.84;81.67;100101.81;10356093;28;20050;-65
2022/12/24 08:29:13;;;;;;;17.98;2.67;;;;;;;11.94;81.68;100088.06;10352997;28;20038;-64
2022/12/24 08:34:15;;;;;;;29.40;2.25;;;;;;;11.99;81.35;100091.84;10352660;28;20037;-64
2022/12/24 08:39:16;;;;;;;15.93;1.83;;;;;;;12.10;81.72;100099.44;10351667;28;20051;-63
2022/12/24 08:44:17;;;;;;;14.00;1.40;;;;;;;12.19;81.37;100110.91;10348542;28;20053;-64
2022/12/24 08:49:19;;;;;;;18.30;1.83;;;;;;;12.19;81.30;100116.31;10354383;28;20035;-64
2022/12/24 08:54:21;;;;;;;15.73;2.22;;;;;;;12.22;81.73;100131.25;10350536;28;20042;-63
2022/12/24 08:59:22;;;;;;;21.05;3.20;;;;;;;12.20;81.46;100136.00;10355141;28;20110;-64
2022/12/24 09:04:24;;;;;;;18.98;2.25;;;;;;;11.86;82.45;100149.06;10354556;28;20035;-63
2022/12/24 09:09:27;;;;;;;27.70;2.53;;;;;;;11.71;82.12;100143.72;10350735;28;20045;-64
2022/12/24 09:14:37;;;;;;;24.63;2.17;;;;;;;11.64;82.22;100150.03;10345770;28;20043;-64
2022/12/24 09:19:39;;;;;;;21.58;1.77;;;;;;;11.51;83.04;100148.88;10339213;28;20050;-64
2022/12/24 09:24:41;;;;;;;28.75;3.45;;;;;;;11.51;82.82;100154.25;10349618;28;20055;-63
2022/12/24 09:29:42;;;;;;;21.65;2.53;;;;;;;11.47;82.81;100141.31;10352932;28;20046;-63
2022/12/24 09:34:43;;;;;;;17.00;1.98;;;;;;;11.47;82.86;100154.78;10349497;28;20046;-63
2022/12/24 09:39:45;;;;;;;22.35;2.78;;;;;;;11.49;82.77;100164.38;10340700;28;20058;-64
2022/12/24 09:44:57;;;;;;;13.15;2.30;;;;;;;11.57;82.07;100160.75;10342950;28;20113;-61
2022/12/24 09:50:02;;;;;;;22.77;2.92;;;;;;;11.57;82.40;100179.59;10341352;28;20054;-61
2022/12/24 09:55:32;;;;;;;23.65;2.47;;;;;;;11.67;82.16;100188.22;10352738;28;20035;-63
2022/12/24 10:00:36;;;;;;;24.83;3.10;;;;;;;11.70;82.75;100187.81;10355982;28;20031;-63
2022/12/24 10:06:00;;;;;;;19.00;2.55;;;;;;;11.75;83.13;100187.28;10357920;28;20053;-62
2022/12/24 10:11:20;;;;;;;20.90;1.90;;;;;;;11.78;83.24;100199.53;10358009;28;20062;-65
2022/12/24 10:16:33;;;;;;;24.23;2.75;;;;;;;11.84;82.61;100196.06;10348435;28;20058;-63
2022/12/24 10:21:59;;;;;;;16.95;1.67;;;;;;;11.88;83.08;100200.06;10353072;28;20110;-63
2022/12/24 10:27:25;;;;;;;16.98;2.40;;;;;;;11.99;82.53;100193.41;10360695;28;20034;-62
2022/12/24 10:32:36;;;;;;;21.10;3.13;;;;;;;12.06;82.72;100202.38;10360618;28;20046;-63
2022/12/24 10:37:37;;;;;;;12.38;2.33;;;;;;;12.22;82.59;100207.56;10357481;28;20049;-63
2022/12/24 10:42:44;;;;;;;17.75;1.88;;;;;;;12.34;81.96;100209.72;10353953;28;20059;-63
2022/12/24 10:47:56;;;;;;;20.70;2.78;;;;;;;12.35;82.47;100211.41;10365834;28;20050;-64
2022/12/24 10:53:05;;;;;;;18.70;2.42;;;;;;;12.48;82.13;100208.88;10355716;28;20655;-64
2022/12/24 10:58:14;;;;;;;19.98;2.40;;;;;;;12.54;82.26;100212.63;10351108;28;20046;-65
2022/12/24 11:03:29;;;;;;;20.33;3.35;;;;;;;12.62;82.19;100215.22;10361034;28;20058;-65
2022/12/24 11:08:31;;;;;;;20.40;3.05;;;;;;;12.67;81.98;100228.94;10356524;28;20053;-65
2022/12/24 11:13:44;;;;;;;11.90;1.38;;;;;;;12.74;81.76;100218.22;10359276;28;20033;-65
2022/12/24 11:18:49;;;;;;;11.82;1.30;;;;;;;12.86;81.47;100230.16;10352340;28;20042;-65
2022/12/24 11:23:56;;;;;;;15.95;2.92;;;;;;;12.97;81.94;100226.91;10355649;28;20043;-65
2022/12/24 11:29:19;;;;;;;17.48;1.75;;;;;;;13.08;81.40;100217.47;10354967;28;20050;-65
2022/12/24 11:34:27;;;;;;;18.98;2.85;;;;;;;13.14;81.39;100216.69;10352196;28;20330;-65
2022/12/24 11:39:37;;;;;;;24.25;2.45;;;;;;;13.20;81.71;100215.91;10350132;28;20093;-65
2022/12/24 11:44:47;;;;;;;26.83;2.53;;;;;;;13.26;81.29;100223.22;10344408;28;20036;-65
2022/12/24 11:49:48;;;;;;;20.08;3.03;;;;;;;13.34;81.35;100224.97;10351637;28;20046;-64
2022/12/24 11:54:59;;;;;;;13.50;1.52;;;;;;;13.47;80.92;100226.94;10342167;28;20042;-65
2022/12/24 12:00:00;;;;;;;18.38;3.03;;;;;;;13.54;81.09;100221.56;10340585;28;20046;-66
2022/12/24 12:05:10;;;;;;;18.42;2.20;;;;;;;13.65;80.67;100205.63;10335484;28;20056;-65
2022/12/24 12:10:19;;;;;;;17.30;2.72;;;;;;;13.73;80.72;100206.50;10328695;28;20054;-64
2022/12/24 12:15:23;;;;;;;18.40;1.70;;;;;;;13.67;80.70;100200.84;10323929;28;20748;-66
2022/12/24 12:20:39;;;;;;;22.77;1.85;;;;;;;13.81;80.19;100203.63;10322811;28;20046;-65
2022/12/24 12:25:52;;;;;;;16.33;2.10;;;;;;;13.94;79.88;100198.28;10318619;28;20078;-65
2022/12/24 12:31:04;;;;;;;19.25;1.67;;;;;;;14.00;80.28;100202.88;10322102;28;20053;-65
2022/12/24 12:36:17;;;;;;;18.15;3.00;;;;;;;14.05;79.96;100204.97;10324098;28;20085;-65
2022/12/24 12:41:44;;;;;;;10.80;2.78;;;;;;;14.04;79.84;100197.88;10326824;28;20046;-65
2022/12/24 12:46:54;;;;;;;13.40;0.90;;;;;;;13.98;79.82;100210.38;10317833;28;20398;-65
2022/12/24 12:52:19;;;;;;;14.48;2.53;;;;;;;13.96;79.34;100209.72;10323554;28;20524;-64
2022/12/24 12:57:25;;;;;;;11.93;2.13;;;;;;;13.95;78.92;100208.06;10306782;28;20038;-66
2022/12/24 13:02:29;;;;;;;12.32;1.90;;;;;;;13.79;78.87;100211.94;10315807;28;20053;-66
2022/12/24 13:07:54;;;;;;;15.40;3.10;;;;;;;13.74;78.75;100208.16;10311242;28;20097;-66
2022/12/24 13:13:01;;;;;;;15.05;2.45;;;;;;;13.65;79.02;100221.00;10321157;28;20094;-67
2022/12/24 13:18:11;;;;;;;;;;;;;;;13.67;80.19;100224.34;10323764;28;20047;-65
2022/12/24 13:23:17;;;;;;;11.70;1.60;;;;;;;13.65;79.50;100232.63;10318520;28;19957;-65
2022/12/24 13:28:19;;;;;;;13.98;2.50;;;;;;;13.69;79.24;100239.31;10330003;28;20055;-65
2022/12/24 13:33:40;;;;;;;9.65;1.30;;;;;;;13.79;78.93;100243.53;10336379;28;20047;-67
2022/12/24 13:38:52;;;;;;;12.15;1.63;;;;;;;13.79;78.46;100247.06;10337990;28;20041;-66
2022/12/24 13:44:05;;;;;;;16.33;2.10;;;;;;;13.77;78.35;100254.53;10338987;28;20054;-68
2022/12/24 13:49:17;;;;;;;14.77;1.95;;;;;;;13.92;78.06;100246.31;10342615;28;20050;-67
2022/12/24 13:54:24;;;;;;;18.00;2.42;;;;;;;13.89;77.97;100260.19;10346925;28;20053;-66
2022/12/24 13:59:35;;;;;;;14.20;1.20;;;;;;;13.87;78.12;100268.50;10345441;28;20104;-68
2022/12/24 14:04:41;;;;;;;21.58;1.77;;;;;;;13.89;78.00;100261.03;10347775;28;20050;-66
2022/12/24 14:09:50;;;;;;;15.43;2.60;;;;;;;13.95;77.05;100251.28;10346245;28;20034;-68
2022/12/24 14:14:51;;;;;;;20.40;2.88;;;;;;;13.90;76.92;100261.84;10342735;28;20311;-67
2022/12/24 14:20:05;;;;;;;14.70;1.33;;;;;;;13.80;76.84;100259.53;10353822;28;20042;-66
2022/12/24 14:25:26;;;;;;;18.85;1.67;;;;;;;13.68;77.21;100275.47;10356018;28;20042;-67
2022/12/24 14:30:29;;;;;;;15.27;1.48;;;;;;;13.63;76.83;100269.81;10355949;28;20037;-69
2022/12/24 14:35:38;;;;;;;13.63;1.67;;;;;;;13.53;77.06;100288.25;10361546;28;20061;-67
2022/12/24 14:41:02;;;;;;;21.00;5.07;;;;;;;13.47;76.90;100283.63;10359536;28;20030;-68
2022/12/24 14:46:28;;;;;;;14.25;1.48;;;;;;;13.40;76.95;100280.03;10648859;23;20046;-67
2022/12/24 14:52:06;;;;;;;18.17;2.10;;;;;;;13.30;77.03;100283.09;10476837;28;20033;-67
2022/12/24 14:57:22;;;;;;;21.40;2.53;;;;;;;13.29;77.18;100276.84;10478810;28;20080;-67
2022/12/24 15:02:40;;;;;;;17.25;2.58;;;;;;;13.23;76.68;100282.16;10478183;28;20048;-67
2022/12/24 15:07:57;;;;;;;16.33;1.75;;;;;;;13.13;76.74;100296.00;10464350;28;20028;-67
2022/12/24 15:13:06;;;;;;;14.93;2.53;;;;;;;13.09;77.05;100306.34;10479610;28;20100;-68
2022/12/24 15:18:15;;;;;;;16.42;2.00;;;;;;;12.98;76.78;100314.13;10479472;28;20041;-67
2022/12/24 15:23:19;;;;;;;16.45;3.28;;;;;;;12.95;76.83;100317.19;10481659;28;20037;-67
2022/12/24 15:28:22;;;;;;;19.75;2.95;;;;;;;12.96;76.91;100330.50;10476741;28;20033;-67
2022/12/24 15:33:23;;;;;;;24.88;4.13;;;;;;;12.85;76.69;100349.88;10459194;28;20056;-67
2022/12/24 15:38:38;;;;;;;23.35;3.83;;;;;;;12.81;76.77;100354.00;10479087;28;20048;-66
2022/12/24 15:43:40;;;;;;;14.90;2.85;;;;;;;12.79;77.30;100353.34;10475011;28;20041;-67
2022/12/24 15:48:44;;;;;;;22.77;3.05;;;;;;;12.76;77.27;100357.25;10448416;28;20035;-67
2022/12/24 15:53:47;;;;;;;26.75;4.13;;;;;;;12.70;77.34;100353.47;10436254;28;20033;-67
2022/12/24 15:58:48;;;;;;;20.63;3.47;;;;;;;12.72;76.55;100352.41;10437459;28;20097;-66
2022/12/24 16:03:49;;;;;;;16.23;3.50;;;;;;;12.61;76.84;100359.16;10433993;28;20041;-67
2022/12/24 16:08:51;;;;;;;24.40;3.35;;;;;;;12.54;76.71;100355.53;10439874;28;20026;-67
2022/12/24 16:14:09;;;;;;;25.95;3.95;;;;;;;12.45;76.96;100355.66;10435538;28;20041;-67
2022/12/24 16:19:22;;;;;;;23.73;5.30;;;;;;;12.34;77.32;100357.97;10434997;28;20053;-67
2022/12/24 16:24:27;;;;;;;27.33;4.60;;;;;;;12.23;77.15;100360.13;10437158;28;20057;-68
2022/12/24 16:29:28;;;;;;;20.75;3.78;;;;;;;12.20;77.41;100370.44;10420730;28;20060;-73
2022/12/24 16:34:31;;;;;;;22.88;4.88;;;;;;;12.02;78.16;100363.56;10385375;28;20107;-73
2022/12/24 16:39:33;;;;;;;24.90;5.03;;;;;;;11.92;78.14;100356.78;10395200;28;20783;-70
2022/12/24 16:44:35;;;;;;;27.83;5.25;;;;;;;11.80;78.42;100367.97;10401607;28;20049;-71
2022/12/24 16:49:37;;;;;;;26.85;4.63;;;;;;;11.80;78.78;100357.19;10392484;28;20080;-67
2022/12/24 16:54:39;;;;;;;19.73;4.28;;;;;;;11.87;78.09;100370.78;10389421;28;20049;-69
2022/12/24 16:59:40;;;;;;;17.80;4.35;;;;;;;11.89;77.58;100368.78;10388991;28;20084;-71
2022/12/24 17:04:42;;;;;;;28.45;5.55;;;;;;;11.80;77.66;100372.53;10404272;28;20107;-72
2022/12/24 17:09:44;;;;;;;23.13;6.05;;;;;;;11.81;77.48;100379.56;10401517;28;20057;-70
2022/12/24 17:14:46;;;;;;;26.15;5.85;;;;;;;11.73;77.70;100379.66;10388544;28;20069;-71
2022/12/24 17:19:47;;;;;;;23.40;5.45;;;;;;;11.69;77.33;100382.72;10374022;28;20058;-72
2022/12/24 17:24:49;;;;;;;27.48;5.43;;;;;;;11.67;77.44;100382.06;10385766;28;20587;-73
2022/12/24 17:29:50;;;;;;;26.88;4.80;;;;;;;11.57;77.52;100372.56;10378417;28;20112;-70
2022/12/24 17:34:52;;;;;;;25.65;4.82;;;;;;;11.53;77.35;100380.16;10380370;28;20065;-70
2022/12/24 17:39:53;;;;;;;24.35;5.93;;;;;;;11.55;77.77;100396.13;10383900;28;20156;-73
2022/12/24 17:44:55;;;;;;;24.33;5.65;;;;;;;11.54;77.35;100400.69;10368875;28;20065;-71
2022/12/24 17:49:56;;;;;;;24.88;5.05;;;;;;;11.49;76.99;100409.31;10414200;28;20140;-72
2022/12/24 17:54:57;;;;;;;28.17;7.10;;;;;;;11.37;77.19;100417.97;10425952;28;20530;-68
2022/12/24 17:59:59;;;;;;;29.55;6.70;;;;;;;11.30;77.25;100407.13;10433019;28;20091;-70
2022/12/24 18:05:00;;;;;;;19.08;5.05;;;;;;;11.27;76.87;100413.66;10416874;28;20566;-72
2022/12/24 18:10:03;;;;;;;18.67;5.78;;;;;;;11.17;77.18;100420.31;10412737;28;20442;-72
2022/12/24 18:15:05;;;;;;;26.75;6.63;;;;;;;11.10;77.17;100401.38;10427016;28;20077;-70
2022/12/24 18:20:07;;;;;;;28.85;6.47;;;;;;;11.04;77.44;100394.84;10431423;28;20072;-71
2022/12/24 18:25:09;;;;;;;21.50;7.22;;;;;;;11.02;77.31;100393.31;10431705;28;20175;-69
2022/12/24 18:30:11;;;;;;;24.52;6.05;;;;;;;10.99;76.96;100393.69;10431512;28;20774;-69
2022/12/24 18:35:13;;;;;;;22.77;6.85;;;;;;;10.96;77.02;100404.78;10435183;28;20088;-71
2022/12/24 18:40:16;;;;;;;31.98;6.82;;;;;;;10.96;77.12;100400.28;10435809;28;20048;-69
2022/12/24 18:45:18;;;;;;;20.35;6.60;;;;;;;10.90;77.51;100401.81;10429361;28;20054;-70
2022/12/24 18:50:19;;;;;;;26.10;7.45;;;;;;;10.86;77.37;100415.78;10391733;28;20077;-70
2022/12/24 18:55:21;;;;;;;30.15;9.23;;;;;;;10.78;77.95;100424.75;10397419;28;20065;-68
2022/12/24 19:00:22;;;;;;;31.08;9.57;;;;;;;10.69;77.97;100448.13;10391104;28;20045;-71
2022/12/24 19:05:23;;;;;;;26.85;9.82;;;;;;;10.63;78.55;100448.81;10384986;28;20058;-71
2022/12/24 19:10:25;;;;;;;27.40;10.52;;;;;;;10.64;78.33;100458.59;10402090;28;20077;-71
2022/12/24 19:15:27;;;;;;;34.63;9.40;;;;;;;10.72;78.60;100460.38;10405369;28;20052;-71
2022/12/24 19:20:39;;;;;;;21.85;8.23;;;;;;;10.86;78.17;100461.50;10398048;28;20046;-69
2022/12/24 19:25:41;;;;;;;23.45;6.60;;;;;;;10.93;77.98;100470.53;10402630;28;20954;-67
2022/12/24 19:30:42;;;;;;;27.48;8.05;;;;;;;10.97;78.66;100476.41;10400387;28;20053;-69
2022/12/24 19:35:43;;;;;;;30.30;8.25;;;;;;;11.10;78.46;100468.63;10398179;28;20037;-70
2022/12/24 19:40:45;;;;;;;24.95;7.13;;;;;;;11.16;78.58;100470.59;10398148;28;20053;-70
2022/12/24 19:45:46;;;;;;;22.33;6.80;;;;;;;11.29;78.24;100464.63;10397029;28;20416;-69
2022/12/24 19:50:47;;;;;;;14.63;6.55;;;;;;;11.31;78.64;100454.53;10394307;28;20112;-72
2022/12/24 19:55:49;;;;;;;15.38;4.78;;;;;;;11.39;78.33;100456.31;10399442;28;20056;-72
2022/12/24 20:00:51;;;;;;;18.77;6.63;;;;;;;11.42;78.27;100453.28;10380611;28;20157;-70
2022/12/24 20:05:53;;;;;;;15.10;5.75;;;;;;;11.43;78.16;100453.13;10402922;28;20077;-68
2022/12/24 20:10:54;;;;;;;29.13;7.07;;;;;;;11.32;78.42;100457.03;10400736;28;20477;-71
2022/12/24 20:15:56;;;;;;;21.90;8.20;;;;;;;11.38;78.66;100458.19;10396174;28;20432;-72
2022/12/24 20:20:58;;;;;;;21.02;6.85;;;;;;;11.39;78.15;100467.09;10389288;28;20038;-67
2022/12/24 20:26:02;;;;;;;22.08;6.10;;;;;;;11.44;78.14;100459.31;10385480;28;20062;-72
2022/12/24 20:31:15;;;;;;;20.75;7.35;;;;;;;11.42;77.87;100470.25;10397114;28;20117;-70
2022/12/24 20:36:19;;;;;;;20.67;7.03;;;;;;;11.42;77.86;100462.19;10385693;28;20524;-71
2022/12/24 20:41:22;;;;;;;21.17;7.15;;;;;;;11.40;77.47;100458.84;10368473;28;20107;-72
2022/12/24 20:46:24;;;;;;;21.50;7.05;;;;;;;11.40;77.65;100474.16;10390968;28;20041;-72
2022/12/24 20:51:27;;;;;;;23.50;7.55;;;;;;;11.39;77.61;100478.69;10393245;28;20115;-71
2022/12/24 20:56:29;;;;;;;21.92;7.13;;;;;;;11.40;77.85;100475.00;10388563;28;20050;-71
2022/12/24 21:01:32;;;;;;;22.63;8.00;;;;;;;11.41;77.38;100462.38;10394623;28;20053;-69
2022/12/24 21:06:35;;;;;;;19.02;6.72;;;;;;;11.37;77.58;100482.56;10391644;28;20038;-71
2022/12/24 21:16:52;;;;;;;23.50;7.25;;;;;;;11.27;77.48;100490.88;10390244;28;20069;-71
2022/12/24 21:21:54;;;;;;;28.70;9.73;;;;;;;11.29;77.68;100491.53;10402526;28;20099;-68
2022/12/24 21:26:55;;;;;;;27.40;9.13;;;;;;;11.26;77.72;100492.75;10426198;28;20106;-67
2022/12/24 21:31:57;;;;;;;24.70;8.68;;;;;;;11.31;77.86;100492.19;10414056;28;20054;-71
2022/12/24 21:36:58;;;;;;;25.00;7.75;;;;;;;11.35;77.67;100460.38;10412389;28;20045;-70
2022/12/24 21:41:59;;;;;;;22.50;7.50;;;;;;;11.37;78.00;100466.44;10400920;28;20041;-71
2022/12/24 21:47:01;;;;;;;27.02;7.47;;;;;;;11.43;78.22;100466.56;10395563;28;20148;-70
2022/12/24 21:52:03;;;;;;;29.20;9.60;;;;;;;11.51;77.96;100458.44;10384581;28;20507;-72
2022/12/24 22:02:27;;;;;;;22.95;6.93;;;;;;;11.70;78.15;100443.63;10398575;28;20049;-68
2022/12/24 22:12:48;;;;;;;19.38;6.38;;;;;;;11.75;78.17;100455.72;10396506;28;20033;-73
2022/12/24 22:17:50;;;;;;;24.30;6.50;;;;;;;11.80;78.44;100464.94;10409391;28;20065;-72
2022/12/24 22:22:51;;;;;;;29.02;7.35;;;;;;;11.83;77.99;100477.22;10425525;28;20060;-66
2022/12/24 22:27:52;;;;;;;25.48;8.48;;;;;;;11.90;77.86;100486.25;10429680;28;20076;-68
2022/12/24 22:32:54;;;;;;;29.00;8.20;;;;;;;11.95;78.29;100486.56;10431449;28;20046;-66
2022/12/24 22:37:55;;;;;;;27.27;8.73;;;;;;;12.01;78.07;100482.31;10407414;28;20541;-72
2022/12/24 22:43:00;;;;;;;31.40;8.68;;;;;;;11.96;78.51;100485.53;10430108;28;20038;-65
2022/12/24 22:48:02;;;;;;;32.53;7.57;;;;;;;11.94;78.65;100473.28;10432080;28;20056;-67
2022/12/24 22:53:03;;;;;;;33.28;9.13;;;;;;;11.97;78.04;100486.38;10424553;28;20026;-68
2022/12/24 22:58:05;;;;;;;23.48;6.18;;;;;;;11.92;78.83;100495.00;10425447;28;20325;-69
2022/12/24 23:03:06;;;;;;;24.70;6.60;;;;;;;11.93;78.52;100488.59;10417523;28;20046;-66
2022/12/24 23:08:09;;;;;;;24.80;6.55;;;;;;;12.02;78.27;100465.94;10433254;28;20054;-65
2022/12/24 23:18:32;;;;;;;21.95;6.70;;;;;;;11.94;78.66;100481.34;10404292;28;20116;-70
2022/12/24 23:23:34;;;;;;;29.10;6.22;;;;;;;11.95;78.79;100493.78;10417614;28;20053;-72
2022/12/24 23:28:38;;;;;;;24.90;5.40;;;;;;;12.02;78.03;100483.97;10400417;28;20046;-70
2022/12/24 23:33:40;;;;;;;23.27;6.75;;;;;;;12.00;78.46;100470.69;10408371;28;20053;-66
2022/12/24 23:38:41;;;;;;;18.70;7.25;;;;;;;12.09;78.38;100466.91;10413171;28;20057;-66
2022/12/24 23:43:43;;;;;;;20.70;6.03;;;;;;;12.09;78.30;100490.31;10412027;28;20045;-71
2022/12/24 23:48:45;;;;;;;22.80;6.15;;;;;;;12.02;78.35;100473.19;10393732;28;20100;-70